Time;durP1;ratioP1;P1;durP2;ratioP2;P2;SDS_P1;SDS_P2;PMS_P1;PMS_P2;Temp;Humidity;BMP_temperature;BMP_pressure;BME280_temperature;BME280_humidity;BME280_pressure;Samples;Min_cycle;Max_cycle;Signal;HPM_P1;HPM_P2
2023/03/05 00:00:13;;;;;;;29.43;14.80;;;;;;;2.32;100.00;99638.78;5052364;28;20282;-78
2023/03/05 00:02:40;;;;;;;29.03;13.70;;;;;;;2.51;100.00;99635.41;5034976;28;20323;-78
2023/03/05 00:05:06;;;;;;;31.93;14.33;;;;;;;2.43;100.00;99635.22;5052900;28;20257;-78
2023/03/05 00:07:34;;;;;;;34.27;15.00;;;;;;;2.41;100.00;99640.66;5052849;28;20315;-77
2023/03/05 00:10:00;;;;;;;34.50;14.97;;;;;;;2.49;100.00;99637.34;5052730;28;20790;-78
2023/03/05 00:12:27;;;;;;;30.90;14.47;;;;;;;2.41;100.00;99637.19;5052873;28;20311;-78
2023/03/05 00:14:52;;;;;;;33.63;15.07;;;;;;;2.47;100.00;99634.00;5053166;28;20344;-78
2023/03/05 00:17:18;;;;;;;32.20;15.00;;;;;;;2.48;100.00;99641.78;5052669;28;20699;-79
2023/03/05 00:19:43;;;;;;;31.60;16.03;;;;;;;2.55;100.00;99629.72;5052758;28;20420;-77
2023/03/05 00:22:09;;;;;;;32.70;14.40;;;;;;;2.45;100.00;99633.28;5056635;28;20025;-77
2023/03/05 00:24:34;;;;;;;30.63;15.13;;;;;;;2.46;100.00;99632.34;5056796;28;20078;-77
2023/03/05 00:27:00;;;;;;;30.80;14.80;;;;;;;2.45;100.00;99622.75;5056835;28;20028;-77
2023/03/05 00:29:27;;;;;;;32.87;14.63;;;;;;;2.48;100.00;99627.75;5056774;28;20460;-78
2023/03/05 00:31:53;;;;;;;28.20;14.63;;;;;;;2.35;100.00;99628.00;5057201;28;20021;-78
2023/03/05 00:34:19;;;;;;;33.00;15.33;;;;;;;2.35;100.00;99635.06;5056811;28;20677;-79
2023/03/05 00:36:48;;;;;;;30.80;14.93;;;;;;;2.40;100.00;99632.88;5056805;28;20044;-78
2023/03/05 00:39:14;;;;;;;29.97;14.90;;;;;;;2.54;100.00;99621.94;5056560;28;20289;-78
2023/03/05 00:41:39;;;;;;;31.63;14.77;;;;;;;2.55;100.00;99616.53;5056677;28;20631;-78
2023/03/05 00:44:06;;;;;;;31.83;14.73;;;;;;;2.53;100.00;99615.03;5056314;28;20071;-78
2023/03/05 00:46:32;;;;;;;30.30;14.67;;;;;;;2.49;100.00;99609.16;5056174;28;20025;-77
2023/03/05 00:49:00;;;;;;;29.63;14.83;;;;;;;2.52;100.00;99618.63;5056428;28;20254;-78
2023/03/05 00:51:26;;;;;;;30.27;13.93;;;;;;;2.54;100.00;99606.13;5056273;28;20475;-78
2023/03/05 00:53:52;;;;;;;31.03;14.67;;;;;;;2.51;100.00;99604.59;5056141;28;20289;-78
2023/03/05 00:56:18;;;;;;;30.57;13.97;;;;;;;2.47;100.00;99599.72;5056091;28;20253;-79
2023/03/05 00:58:44;;;;;;;30.37;14.17;;;;;;;2.44;100.00;99605.25;5056027;28;20282;-78
2023/03/05 01:01:09;;;;;;;32.87;14.50;;;;;;;2.43;100.00;99596.50;5071955;28;20110;-78
2023/03/05 01:03:35;;;;;;;34.50;14.40;;;;;;;2.39;100.00;99597.75;5076133;28;20118;-78
2023/03/05 01:06:05;;;;;;;29.10;13.80;;;;;;;2.52;100.00;99595.72;5075889;28;20020;-78
2023/03/05 01:08:30;;;;;;;31.17;14.63;;;;;;;2.51;100.00;99603.75;5075878;28;20068;-78
2023/03/05 01:10:56;;;;;;;32.53;15.30;;;;;;;2.40;100.00;99588.03;5076015;28;20265;-78
2023/03/05 01:13:22;;;;;;;31.93;14.63;;;;;;;2.49;100.00;99585.44;5076133;28;20108;-78
2023/03/05 01:15:49;;;;;;;30.23;14.37;;;;;;;2.45;100.00;99585.81;5076056;28;20108;-78
2023/03/05 01:18:16;;;;;;;30.37;14.67;;;;;;;2.46;100.00;99590.97;5075472;28;20029;-78
2023/03/05 01:20:42;;;;;;;30.30;14.23;;;;;;;2.50;100.00;99579.19;5075949;28;20354;-78
2023/03/05 01:23:09;;;;;;;32.60;14.37;;;;;;;2.44;100.00;99568.31;5075923;28;20653;-78
2023/03/05 01:25:35;;;;;;;30.07;12.73;;;;;;;2.46;100.00;99569.03;5075931;28;20501;-78
2023/03/05 01:28:00;;;;;;;31.80;14.87;;;;;;;2.64;100.00;99556.88;5075720;28;20351;-78
2023/03/05 01:30:26;;;;;;;29.73;14.27;;;;;;;2.49;100.00;99563.50;5075809;28;20024;-78
2023/03/05 01:32:51;;;;;;;31.00;14.60;;;;;;;2.50;100.00;99570.44;5075016;28;20426;-78
2023/03/05 01:35:21;;;;;;;36.00;14.80;;;;;;;2.52;100.00;99576.41;5075447;28;20090;-78
2023/03/05 01:37:47;;;;;;;31.40;14.37;;;;;;;2.50;100.00;99575.72;5075369;28;20027;-78
2023/03/05 01:40:19;;;;;;;31.73;14.70;;;;;;;2.51;100.00;99574.75;5075415;28;20321;-78
2023/03/05 01:42:57;;;;;;;29.50;13.53;;;;;;;2.39;100.00;99574.03;5075390;28;20257;-78
2023/03/05 01:45:23;;;;;;;30.80;14.77;;;;;;;2.47;100.00;99571.53;5075309;28;20302;-78
2023/03/05 01:47:50;;;;;;;31.27;14.93;;;;;;;2.59;100.00;99566.16;5075212;28;20340;-78
2023/03/05 01:50:19;;;;;;;29.67;14.50;;;;;;;2.45;100.00;99570.00;5075097;28;20025;-78
2023/03/05 01:52:53;;;;;;;30.50;14.80;;;;;;;2.51;100.00;99574.75;5075287;28;20257;-78
2023/03/05 01:55:23;;;;;;;30.27;15.00;;;;;;;2.50;100.00;99567.81;5074744;28;20823;-78
2023/03/05 01:57:58;;;;;;;29.87;14.33;;;;;;;2.50;100.00;99559.88;5075215;28;20272;-78
2023/03/05 02:00:33;;;;;;;34.87;15.20;;;;;;;2.56;100.00;99564.59;5074739;28;20342;-78
2023/03/05 02:03:04;;;;;;;32.27;14.90;;;;;;;2.49;100.00;99566.13;5075290;28;20264;-78
2023/03/05 02:05:33;;;;;;;32.80;14.33;;;;;;;2.52;100.00;99561.44;5075513;28;20347;-78
2023/03/05 02:08:01;;;;;;;31.30;15.03;;;;;;;2.50;100.00;99559.88;5056967;28;20257;-78
2023/03/05 02:10:35;;;;;;;32.80;15.43;;;;;;;2.58;100.00;99557.41;5074798;28;20307;-79
2023/03/05 02:13:05;;;;;;;;;;;;;;;2.48;100.00;99554.75;5075084;28;20261;-78
2023/03/05 02:15:33;;;;;;;33.23;14.37;;;;;;;2.53;100.00;99555.19;5074837;28;19908;-78
2023/03/05 02:18:00;;;;;;;32.20;14.53;;;;;;;2.66;100.00;99559.34;5074459;28;20730;-78
2023/03/05 02:20:29;;;;;;;32.40;15.03;;;;;;;2.70;100.00;99551.03;5074736;28;20303;-78
2023/03/05 02:22:54;;;;;;;32.80;15.13;;;;;;;2.59;100.00;99548.53;5074526;28;20261;-78
2023/03/05 02:25:26;;;;;;;35.57;15.63;;;;;;;2.65;100.00;99540.06;5074531;28;20271;-78
2023/03/05 02:28:04;;;;;;;31.03;14.20;;;;;;;2.72;100.00;99543.81;5074520;28;20054;-78
2023/03/05 02:30:30;;;;;;;32.77;14.93;;;;;;;2.65;100.00;99531.31;5074376;28;20726;-78
2023/03/05 02:32:56;;;;;;;31.23;15.20;;;;;;;2.53;100.00;99528.81;5056386;28;20352;-78
2023/03/05 02:35:22;;;;;;;31.87;14.80;;;;;;;2.51;100.00;99528.09;5074132;28;20267;-78
2023/03/05 02:37:49;;;;;;;29.73;14.33;;;;;;;2.59;100.00;99526.56;5074350;28;20032;-78
2023/03/05 02:40:15;;;;;;;31.73;15.50;;;;;;;2.65;100.00;99529.53;5073881;28;20277;-79
2023/03/05 02:42:41;;;;;;;37.33;16.07;;;;;;;2.62;100.00;99528.94;5073581;28;20345;-78
2023/03/05 02:45:08;;;;;;;33.33;16.10;;;;;;;2.43;100.00;99527.94;5055631;28;20651;-77
2023/03/05 02:47:33;;;;;;;33.93;15.20;;;;;;;2.50;100.00;99523.78;5073980;28;20430;-78
2023/03/05 02:49:59;;;;;;;32.33;15.60;;;;;;;2.56;100.00;99522.41;5073687;28;20268;-78
2023/03/05 02:52:26;;;;;;;30.63;14.97;;;;;;;2.54;100.00;99524.34;5074056;28;20467;-78
2023/03/05 02:54:52;;;;;;;33.60;15.13;;;;;;;2.72;100.00;99533.28;5073864;28;20032;-78
2023/03/05 02:57:19;;;;;;;32.97;15.23;;;;;;;2.62;100.00;99536.88;5073915;28;20261;-78
2023/03/05 02:59:47;;;;;;;35.33;16.63;;;;;;;2.63;100.00;99533.25;5073356;28;20071;-78
2023/03/05 03:02:15;;;;;;;34.23;15.77;;;;;;;2.52;100.00;99534.22;5073649;28;20810;-78
2023/03/05 03:04:42;;;;;;;33.20;16.10;;;;;;;2.47;100.00;99536.41;5073849;28;20265;-78
2023/03/05 03:07:10;;;;;;;35.37;15.97;;;;;;;2.48;100.00;99531.00;5073868;28;20303;-78
2023/03/05 03:09:36;;;;;;;34.07;15.63;;;;;;;2.45;100.00;99526.00;5073240;28;20265;-78
2023/03/05 03:12:02;;;;;;;32.97;15.80;;;;;;;2.50;100.00;99520.31;5073541;28;20280;-79
2023/03/05 03:14:40;;;;;;;36.13;16.33;;;;;;;2.60;100.00;99515.06;5073578;28;20066;-78
2023/03/05 03:17:10;;;;;;;33.60;15.30;;;;;;;2.61;100.00;99511.44;5073453;28;20338;-78
2023/03/05 03:19:37;;;;;;;31.70;15.83;;;;;;;2.59;100.00;99511.59;5073298;28;20734;-78
2023/03/05 03:22:03;;;;;;;34.47;16.10;;;;;;;2.57;100.00;99510.88;5073269;28;20253;-78
2023/03/05 03:24:30;;;;;;;34.37;15.90;;;;;;;2.57;100.00;99512.69;5073609;28;20713;-78
2023/03/05 03:26:55;;;;;;;32.83;16.73;;;;;;;2.71;100.00;99504.38;5073513;28;20340;-78
2023/03/05 03:29:21;;;;;;;31.87;15.17;;;;;;;2.51;100.00;99495.63;5073428;28;20399;-78
2023/03/05 03:31:47;;;;;;;33.67;16.17;;;;;;;2.71;100.00;99510.50;5073591;28;20074;-78
2023/03/05 03:34:14;;;;;;;31.37;14.90;;;;;;;2.62;100.00;99503.41;5073112;28;20024;-78
2023/03/05 03:36:44;;;;;;;31.17;15.47;;;;;;;2.58;100.00;99498.53;5055108;28;20059;-78
2023/03/05 03:39:13;;;;;;;32.80;16.63;;;;;;;2.56;100.00;99509.22;5054900;28;20273;-78
2023/03/05 03:41:44;;;;;;;33.13;15.67;;;;;;;2.60;100.00;99507.16;5073282;28;20769;-78
2023/03/05 03:44:12;;;;;;;33.20;16.23;;;;;;;2.61;100.00;99503.53;5073085;28;20253;-78
2023/03/05 03:46:39;;;;;;;29.47;15.40;;;;;;;2.65;100.00;99497.84;5073057;28;20253;-78
2023/03/05 03:49:07;;;;;;;30.27;15.33;;;;;;;2.62;100.00;99500.75;5072965;28;20618;-78
2023/03/05 03:51:33;;;;;;;30.60;15.13;;;;;;;2.63;100.00;99496.31;5073230;28;20254;-78
2023/03/05 03:53:59;;;;;;;32.17;15.53;;;;;;;2.59;100.00;99492.28;5072758;28;20310;-78
2023/03/05 03:56:25;;;;;;;30.43;14.97;;;;;;;2.62;100.00;99492.84;5072976;28;20024;-78
2023/03/05 03:58:52;;;;;;;32.87;15.77;;;;;;;2.72;100.00;99488.41;5072056;28;20300;-78
2023/03/05 04:01:19;;;;;;;29.70;14.97;;;;;;;2.62;100.00;99490.22;5072747;28;20021;-78
2023/03/05 04:03:45;;;;;;;32.87;15.87;;;;;;;2.57;100.00;99486.31;5072806;28;20257;-78
2023/03/05 04:06:11;;;;;;;32.47;15.40;;;;;;;2.58;100.00;99486.16;5072926;28;20250;-78
2023/03/05 04:08:36;;;;;;;35.40;15.90;;;;;;;2.71;100.00;99486.75;5072893;28;20027;-78
2023/03/05 04:11:02;;;;;;;30.90;15.37;;;;;;;2.62;100.00;99482.28;5072987;28;20095;-78
2023/03/05 04:13:28;;;;;;;31.87;15.80;;;;;;;2.57;100.00;99481.03;5072660;28;20481;-78
2023/03/05 04:15:54;;;;;;;33.47;15.43;;;;;;;2.74;100.00;99472.44;5072901;28;20020;-78
2023/03/05 04:18:20;;;;;;;29.90;15.30;;;;;;;2.59;100.00;99474.66;5072516;28;20268;-78
2023/03/05 04:20:47;;;;;;;31.40;15.67;;;;;;;2.52;100.00;99476.19;5072656;28;20273;-78
2023/03/05 04:23:13;;;;;;;30.87;14.73;;;;;;;2.73;100.00;99474.25;5072864;28;20439;-78
2023/03/05 04:25:38;;;;;;;35.43;17.17;;;;;;;2.60;100.00;99465.75;5072567;28;20278;-78
2023/03/05 04:28:04;;;;;;;32.40;15.10;;;;;;;2.61;100.00;99463.97;5072534;28;20035;-78
2023/03/05 04:30:30;;;;;;;34.87;16.47;;;;;;;2.57;100.00;99471.31;5072521;28;20397;-78
2023/03/05 04:32:55;;;;;;;36.33;16.30;;;;;;;2.60;100.00;99468.41;5072712;28;20029;-78
2023/03/05 04:35:21;;;;;;;31.43;15.37;;;;;;;2.57;100.00;99466.03;5054482;28;20769;-78
2023/03/05 04:37:46;;;;;;;34.50;15.90;;;;;;;2.77;100.00;99472.19;5072584;28;20035;-78
2023/03/05 04:40:12;;;;;;;34.07;15.60;;;;;;;2.67;100.00;99463.41;5072342;28;20028;-78
2023/03/05 04:42:38;;;;;;;32.67;15.80;;;;;;;2.62;100.00;99463.81;5072477;28;20103;-78
2023/03/05 04:45:05;;;;;;;32.67;15.63;;;;;;;2.62;100.00;99460.34;5072395;28;20052;-78
2023/03/05 04:47:31;;;;;;;33.57;15.07;;;;;;;2.58;100.00;99451.03;5072507;28;20024;-78
2023/03/05 04:49:57;;;;;;;32.13;15.90;;;;;;;2.65;100.00;99460.91;5072704;28;20658;-78
2023/03/05 04:52:22;;;;;;;32.63;16.30;;;;;;;2.60;100.00;99454.38;5072372;28;20265;-78
2023/03/05 04:54:48;;;;;;;33.13;15.50;;;;;;;2.76;100.00;99455.50;5054747;28;20056;-78
2023/03/05 04:57:13;;;;;;;32.60;16.23;;;;;;;2.65;100.00;99453.00;5072646;28;20025;-77
2023/03/05 04:59:39;;;;;;;34.87;16.30;;;;;;;2.58;100.00;99445.75;5071801;28;20444;-77
2023/03/05 05:02:04;;;;;;;37.43;16.07;;;;;;;2.51;100.00;99442.84;5054488;28;20497;-77
2023/03/05 05:04:30;;;;;;;34.13;17.47;;;;;;;2.60;100.00;99451.75;5072240;28;20039;-77
2023/03/05 05:06:57;;;;;;;33.23;16.20;;;;;;;2.62;100.00;99452.44;5073753;28;20074;-77
2023/03/05 05:09:23;;;;;;;34.40;15.90;;;;;;;2.60;100.00;99449.94;5075695;28;20652;-77
2023/03/05 05:11:49;;;;;;;36.63;17.43;;;;;;;2.51;100.00;99446.34;5057739;28;20261;-77
2023/03/05 05:14:15;;;;;;;37.63;17.50;;;;;;;2.61;100.00;99443.69;5075856;28;20622;-77
2023/03/05 05:16:41;;;;;;;34.20;16.53;;;;;;;2.48;100.00;99438.69;5076290;28;20040;-77
2023/03/05 05:19:07;;;;;;;36.93;17.40;;;;;;;2.49;100.00;99435.06;5075430;28;20273;-77
2023/03/05 05:21:33;;;;;;;36.43;17.50;;;;;;;2.42;100.00;99426.03;5057989;28;20103;-77
2023/03/05 05:23:59;;;;;;;37.50;16.77;;;;;;;2.45;100.00;99424.94;5075603;28;20425;-77
2023/03/05 05:26:25;;;;;;;37.00;17.73;;;;;;;2.55;100.00;99425.75;5057802;28;20723;-77
2023/03/05 05:28:50;;;;;;;36.63;17.17;;;;;;;2.50;100.00;99439.38;5057514;28;20073;-76
2023/03/05 05:31:16;;;;;;;35.00;17.67;;;;;;;2.51;100.00;99432.31;5075545;28;20249;-77
2023/03/05 05:33:42;;;;;;;34.93;16.57;;;;;;;2.43;100.00;99435.63;5057605;28;20024;-77
2023/03/05 05:36:11;;;;;;;34.57;16.77;;;;;;;2.43;100.00;99435.63;5075538;28;20254;-77
2023/03/05 05:38:37;;;;;;;35.03;16.77;;;;;;;2.41;100.00;99439.38;5074734;28;20036;-77
2023/03/05 05:41:09;;;;;;;34.83;16.27;;;;;;;2.36;100.00;99428.41;5075329;28;20730;-77
2023/03/05 05:43:35;;;;;;;36.83;17.57;;;;;;;2.46;100.00;99437.16;5075259;28;20691;-77
2023/03/05 05:46:05;;;;;;;34.17;15.33;;;;;;;2.61;100.00;99441.06;5057254;28;20293;-77
2023/03/05 05:48:32;;;;;;;44.80;19.93;;;;;;;2.72;100.00;99446.19;5075175;28;20035;-78
2023/03/05 05:50:59;;;;;;;36.23;17.43;;;;;;;2.98;100.00;99449.09;5075039;28;20568;-77
2023/03/05 05:53:25;;;;;;;32.87;16.63;;;;;;;3.02;100.00;99445.19;5067199;28;20374;-77
2023/03/05 05:55:51;;;;;;;37.40;17.23;;;;;;;2.86;100.00;99451.06;5070365;28;20272;-77
2023/03/05 05:58:17;;;;;;;37.07;17.17;;;;;;;2.85;100.00;99446.75;5069714;28;20653;-77
2023/03/05 06:00:44;;;;;;;39.60;17.53;;;;;;;2.85;100.00;99448.56;5068977;28;20292;-77
2023/03/05 06:03:10;;;;;;;37.13;17.10;;;;;;;2.80;100.00;99453.41;5074428;28;20062;-78
2023/03/05 06:05:35;;;;;;;36.63;17.00;;;;;;;2.83;100.00;99450.50;5074217;28;20289;-77
2023/03/05 06:08:01;;;;;;;35.53;16.77;;;;;;;2.72;100.00;99454.09;5056709;28;20036;-77
2023/03/05 06:10:26;;;;;;;35.03;16.37;;;;;;;2.63;100.00;99462.03;5074838;28;20029;-78
2023/03/05 06:12:52;;;;;;;34.57;16.50;;;;;;;2.62;100.00;99455.91;5075011;28;20406;-77
2023/03/05 06:15:18;;;;;;;39.10;18.23;;;;;;;2.63;100.00;99460.22;5074900;28;20302;-78
2023/03/05 06:17:46;;;;;;;36.17;16.90;;;;;;;2.65;100.00;99454.81;5056670;28;20021;-77
2023/03/05 06:20:13;;;;;;;40.20;17.27;;;;;;;2.63;100.00;99454.09;5074303;28;20364;-81
2023/03/05 06:22:39;;;;;;;35.73;15.80;;;;;;;2.57;100.00;99452.84;5075278;28;20276;-79
2023/03/05 06:25:06;;;;;;;39.03;18.60;;;;;;;2.56;100.00;99453.81;5074608;28;20602;-79
2023/03/05 06:27:34;;;;;;;35.90;16.60;;;;;;;2.58;100.00;99443.97;5072116;28;20668;-80
2023/03/05 06:30:00;;;;;;;39.97;17.27;;;;;;;2.54;100.00;99447.84;5074282;28;20264;-80
2023/03/05 06:32:26;;;;;;;35.93;16.67;;;;;;;2.47;100.00;99442.28;5056615;28;20267;-81
2023/03/05 06:34:56;;;;;;;39.47;17.50;;;;;;;2.50;100.00;99452.56;5074635;28;20344;-80
2023/03/05 06:37:22;;;;;;;36.70;18.10;;;;;;;2.53;100.00;99454.09;5074505;28;20036;-81
2023/03/05 06:39:48;;;;;;;36.87;17.20;;;;;;;2.55;100.00;99452.97;5074450;28;20339;-82
2023/03/05 06:42:16;;;;;;;37.83;17.20;;;;;;;2.71;100.00;99449.81;5074536;28;20070;-81
2023/03/05 06:44:42;;;;;;;36.67;17.43;;;;;;;2.67;100.00;99451.03;5074288;28;20020;-81
2023/03/05 06:47:09;;;;;;;39.30;17.67;;;;;;;2.47;100.00;99444.94;5074260;28;20314;-82
2023/03/05 06:49:36;;;;;;;39.33;17.33;;;;;;;2.63;100.00;99446.19;5074530;28;20307;-83
2023/03/05 06:52:02;;;;;;;39.77;17.63;;;;;;;2.71;100.00;99449.81;5056414;28;20266;-81
2023/03/05 06:54:28;;;;;;;35.80;16.97;;;;;;;2.80;100.00;99445.50;5074006;28;20265;-82
2023/03/05 06:56:55;;;;;;;39.83;17.97;;;;;;;2.70;100.00;99450.78;5073998;28;20272;-81
2023/03/05 06:59:20;;;;;;;34.57;16.90;;;;;;;2.80;100.00;99451.59;5070581;28;20028;-81
2023/03/05 07:01:47;;;;;;;41.77;18.13;;;;;;;2.82;100.00;99447.03;5067724;28;20249;-81
2023/03/05 07:04:14;;;;;;;38.70;18.43;;;;;;;2.83;100.00;99447.84;5073244;28;20111;-81
2023/03/05 07:06:41;;;;;;;39.47;17.33;;;;;;;2.85;100.00;99446.75;5064767;28;20258;-81
2023/03/05 07:09:09;;;;;;;34.73;17.00;;;;;;;2.75;100.00;99451.19;5068929;28;20281;-81
2023/03/05 07:11:35;;;;;;;37.60;17.57;;;;;;;2.78;100.00;99447.44;5070598;28;20734;-80
2023/03/05 07:14:02;;;;;;;38.60;17.20;;;;;;;2.85;100.00;99454.66;5070456;28;20253;-79
2023/03/05 07:16:30;;;;;;;39.17;17.37;;;;;;;2.97;100.00;99458.00;5068179;28;20054;-79
2023/03/05 07:18:57;;;;;;;37.60;17.70;;;;;;;2.95;100.00;99456.47;5073402;28;20631;-79
2023/03/05 07:21:27;;;;;;;32.77;16.80;;;;;;;3.08;100.00;99454.38;5070670;28;20268;-78
2023/03/05 07:23:54;;;;;;;37.83;16.83;;;;;;;2.86;100.00;99458.13;5058513;28;20257;-79
2023/03/05 07:26:20;;;;;;;37.67;17.57;;;;;;;2.84;100.00;99452.16;5040963;28;20349;-80
2023/03/05 07:28:46;;;;;;;38.17;17.07;;;;;;;2.96;100.00;99453.69;5053539;28;20316;-78
2023/03/05 07:31:14;;;;;;;36.13;17.47;;;;;;;3.03;100.00;99459.22;5053215;28;20151;-78
2023/03/05 07:33:40;;;;;;;37.57;17.60;;;;;;;3.10;100.00;99452.41;5053052;28;20873;-81
2023/03/05 07:36:08;;;;;;;36.57;17.37;;;;;;;3.21;100.00;99450.47;5053122;28;20337;-78
2023/03/05 07:38:37;;;;;;;37.17;16.43;;;;;;;3.24;100.00;99451.97;5053679;28;20082;-78
2023/03/05 07:41:08;;;;;;;37.37;17.07;;;;;;;3.19;100.00;99439.19;5053630;28;20265;-78
2023/03/05 07:43:33;;;;;;;35.43;16.93;;;;;;;3.25;100.00;99450.97;5053086;28;20588;-78
2023/03/05 07:46:06;;;;;;;35.67;17.20;;;;;;;3.16;100.00;99443.91;5057409;28;20265;-78
2023/03/05 07:48:32;;;;;;;40.08;17.38;;;;;;;3.25;100.00;99446.53;5073704;28;20020;-78
2023/03/05 07:51:03;;;;;;;34.23;16.30;;;;;;;3.38;100.00;99442.75;5073028;28;20036;-78
2023/03/05 07:53:28;;;;;;;36.17;17.73;;;;;;;3.44;100.00;99448.31;5070149;28;20257;-78
2023/03/05 07:55:54;;;;;;;37.47;17.97;;;;;;;3.39;100.00;99434.69;5072887;28;20284;-78
2023/03/05 07:58:19;;;;;;;35.07;17.17;;;;;;;3.50;100.00;99431.88;5072990;28;20486;-78
2023/03/05 08:00:48;;;;;;;38.63;17.93;;;;;;;3.52;100.00;99439.66;5073011;28;20072;-78
2023/03/05 08:03:13;;;;;;;36.13;17.97;;;;;;;3.61;100.00;99434.34;5064556;28;20024;-78
2023/03/05 08:05:41;;;;;;;36.37;17.73;;;;;;;3.68;100.00;99439.88;5072998;28;20326;-78
2023/03/05 08:08:07;;;;;;;36.77;17.70;;;;;;;3.79;100.00;99446.81;5073125;28;20025;-79
2023/03/05 08:10:34;;;;;;;32.23;16.73;;;;;;;3.67;100.00;99432.09;5073184;28;20258;-80
2023/03/05 08:13:00;;;;;;;35.97;17.57;;;;;;;3.68;100.00;99436.41;5072910;28;20261;-79
2023/03/05 08:15:26;;;;;;;36.93;17.80;;;;;;;3.67;100.00;99427.66;5073018;28;20255;-79
2023/03/05 08:17:51;;;;;;;33.83;17.77;;;;;;;3.67;100.00;99426.81;5072984;28;20103;-80
2023/03/05 08:20:18;;;;;;;40.50;17.60;;;;;;;3.90;100.00;99430.75;5072829;28;20024;-81
2023/03/05 08:22:44;;;;;;;38.00;17.50;;;;;;;3.92;100.00;99418.22;5073262;28;20020;-78
2023/03/05 08:25:11;;;;;;;34.63;17.27;;;;;;;3.97;100.00;99418.59;5072667;28;20265;-80
2023/03/05 08:27:39;;;;;;;34.47;16.67;;;;;;;4.03;100.00;99420.66;5072605;28;20265;-80
2023/03/05 08:30:06;;;;;;;33.83;17.10;;;;;;;4.09;100.00;99421.88;5054701;28;20257;-81
2023/03/05 08:32:32;;;;;;;34.07;16.20;;;;;;;4.08;100.00;99423.69;5054802;28;20754;-79
2023/03/05 08:34:58;;;;;;;37.67;18.00;;;;;;;4.25;100.00;99424.69;5072975;28;20266;-79
2023/03/05 08:37:24;;;;;;;34.67;16.77;;;;;;;4.28;100.00;99422.56;5054629;28;20339;-79
2023/03/05 08:39:50;;;;;;;32.77;17.23;;;;;;;4.26;100.00;99419.25;5072738;28;20060;-79
2023/03/05 08:42:17;;;;;;;33.00;16.73;;;;;;;4.31;100.00;99424.09;5075225;28;20327;-80
2023/03/05 08:44:43;;;;;;;31.77;16.20;;;;;;;4.29;100.00;99415.47;5076492;28;20424;-80
2023/03/05 08:47:09;;;;;;;34.00;16.47;;;;;;;4.23;100.00;99413.44;5076473;28;20314;-79
2023/03/05 08:49:34;;;;;;;34.07;16.97;;;;;;;4.24;100.00;99420.38;5076341;28;20056;-79
2023/03/05 08:52:00;;;;;;;34.47;16.27;;;;;;;4.36;100.00;99411.25;5076241;28;20020;-81
2023/03/05 08:54:25;;;;;;;34.67;16.30;;;;;;;4.50;100.00;99408.06;5075961;28;20126;-81
2023/03/05 08:56:51;;;;;;;33.43;16.80;;;;;;;4.51;100.00;99412.38;5076030;28;20160;-78
2023/03/05 08:59:16;;;;;;;31.20;16.87;;;;;;;4.69;100.00;99409.75;5074684;28;20128;-78
2023/03/05 09:01:42;;;;;;;32.57;16.60;;;;;;;4.77;100.00;99404.50;5076016;28;20020;-78
2023/03/05 09:04:08;;;;;;;35.63;16.90;;;;;;;4.84;100.00;99404.75;5076000;28;20051;-79
2023/03/05 09:06:38;;;;;;;35.77;16.37;;;;;;;4.84;100.00;99410.03;5075741;28;20059;-77
2023/03/05 09:09:03;;;;;;;36.17;16.70;;;;;;;4.87;100.00;99407.06;5075647;28;20253;-78
2023/03/05 09:11:29;;;;;;;33.30;15.83;;;;;;;5.02;100.00;99405.53;5075873;28;20249;-78
2023/03/05 09:13:54;;;;;;;36.83;17.37;;;;;;;4.91;100.00;99409.25;5075469;28;20055;-78
2023/03/05 09:16:21;;;;;;;33.70;16.90;;;;;;;4.96;100.00;99406.16;5076090;28;20151;-79
2023/03/05 09:18:47;;;;;;;35.07;16.83;;;;;;;4.95;100.00;99397.38;5075756;28;20043;-79
2023/03/05 09:21:16;;;;;;;33.37;16.17;;;;;;;5.00;100.00;99400.38;5075887;28;20262;-78
2023/03/05 09:23:42;;;;;;;30.43;15.50;;;;;;;5.17;100.00;99396.03;5075700;28;20023;-78
2023/03/05 09:26:11;;;;;;;29.00;15.07;;;;;;;5.27;100.00;99395.94;5075348;28;20318;-78
2023/03/05 09:28:37;;;;;;;31.53;15.73;;;;;;;5.22;100.00;99395.56;5075393;28;20254;-79
2023/03/05 09:31:06;;;;;;;36.93;17.23;;;;;;;5.24;100.00;99388.28;5075130;28;20253;-78
2023/03/05 09:33:33;;;;;;;33.77;16.30;;;;;;;5.29;100.00;99388.66;5075145;28;20414;-78
2023/03/05 09:35:59;;;;;;;31.47;16.33;;;;;;;5.20;100.00;99384.28;5075390;28;20257;-79
2023/03/05 09:38:26;;;;;;;33.33;16.37;;;;;;;5.34;100.00;99381.88;5075112;28;20299;-78
2023/03/05 09:40:58;;;;;;;31.53;15.73;;;;;;;5.43;100.00;99378.28;5074855;28;20281;-78
2023/03/05 09:43:42;;;;;;;31.87;15.43;;;;;;;5.51;100.00;99382.81;5074895;28;20762;-78
2023/03/05 09:46:37;;;;;;;33.93;16.70;;;;;;;5.47;100.00;99374.34;5056886;28;20257;-79
2023/03/05 09:49:13;;;;;;;34.30;17.07;;;;;;;5.73;100.00;99374.31;5056883;28;20272;-78
2023/03/05 09:51:40;;;;;;;33.17;16.67;;;;;;;5.82;100.00;99383.94;5074869;28;20604;-78
2023/03/05 09:54:18;;;;;;;33.90;16.37;;;;;;;5.83;100.00;99377.66;5056349;28;20257;-78
2023/03/05 09:56:49;;;;;;;34.70;16.80;;;;;;;5.90;100.00;99377.84;5056737;28;20372;-78
2023/03/05 09:59:37;;;;;;;32.83;16.07;;;;;;;5.79;100.00;99373.66;5070205;28;20285;-79
2023/03/05 10:02:13;;;;;;;32.23;15.77;;;;;;;5.81;100.00;99371.69;5054389;28;20254;-78
2023/03/05 10:05:01;;;;;;;35.50;17.27;;;;;;;5.79;100.00;99363.03;5054090;28;20262;-79
2023/03/05 10:07:33;;;;;;;32.00;16.40;;;;;;;5.90;100.00;99366.41;5054312;28;20261;-80
2023/03/05 10:10:22;;;;;;;35.17;17.57;;;;;;;6.04;100.00;99358.69;5054232;28;20392;-80
2023/03/05 10:12:51;;;;;;;35.50;17.97;;;;;;;6.16;100.00;99359.19;5016940;28;20728;-78
2023/03/05 10:15:39;;;;;;;33.37;16.87;;;;;;;6.21;100.00;99354.25;5054546;28;20731;-79
2023/03/05 10:18:10;;;;;;;35.10;16.77;;;;;;;6.35;100.00;99345.63;5054367;28;20277;-78
2023/03/05 10:20:36;;;;;;;35.90;17.33;;;;;;;6.41;100.00;99344.97;5054487;28;20300;-79
2023/03/05 10:23:07;;;;;;;35.17;17.90;;;;;;;6.22;100.00;99336.50;5054014;28;20250;-79
2023/03/05 10:26:09;;;;;;;37.60;17.60;;;;;;;6.48;100.00;99340.66;5036034;28;20363;-79
2023/03/05 10:29:02;;;;;;;36.30;17.63;;;;;;;6.38;100.00;99331.19;5039607;28;20339;-79
2023/03/05 10:31:57;;;;;;;36.23;17.37;;;;;;;6.45;100.00;99341.00;5053893;28;20246;-79
2023/03/05 10:34:38;;;;;;;33.80;16.77;;;;;;;6.38;100.00;99329.38;5053842;28;20265;-78
2023/03/05 10:37:16;;;;;;;38.00;17.30;;;;;;;6.48;100.00;99332.69;5054129;28;20792;-80
2023/03/05 10:40:22;;;;;;;37.00;18.13;;;;;;;6.39;99.78;99330.22;5054164;28;20412;-80
2023/03/05 10:43:09;;;;;;;34.07;17.80;;;;;;;6.48;99.96;99327.38;5036532;28;20258;-80
2023/03/05 10:45:43;;;;;;;36.37;17.43;;;;;;;6.69;98.31;99334.03;5036459;28;20296;-79
2023/03/05 10:48:26;;;;;;;32.27;16.53;;;;;;;6.52;98.66;99322.59;5053851;28;20266;-76
2023/03/05 10:51:07;;;;;;;38.73;17.23;;;;;;;6.41;98.76;99321.09;5053911;28;20250;-77
2023/03/05 10:53:47;;;;;;;35.23;16.97;;;;;;;6.40;96.94;99315.94;5053936;28;20615;-77
2023/03/05 10:56:12;;;;;;;36.53;17.63;;;;;;;6.25;96.97;99315.75;5053895;28;20326;-77
2023/03/05 10:58:38;;;;;;;40.03;18.07;;;;;;;6.04;98.56;99318.06;5053269;28;20345;-77
2023/03/05 11:01:05;;;;;;;36.83;17.53;;;;;;;6.24;98.48;99313.25;5072639;28;20031;-77
2023/03/05 11:04:04;;;;;;;35.27;17.03;;;;;;;5.93;98.90;99305.94;5073518;28;20106;-77
2023/03/05 11:06:34;;;;;;;33.90;16.73;;;;;;;5.98;100.00;99308.94;5073434;28;20253;-77
2023/03/05 11:09:18;;;;;;;34.97;17.00;;;;;;;6.22;98.84;99304.66;5073709;28;20781;-78
2023/03/05 11:12:11;;;;;;;38.17;17.80;;;;;;;6.09;97.65;99295.38;5073612;28;20264;-77
2023/03/05 11:14:40;;;;;;;33.97;17.20;;;;;;;6.21;97.63;99289.75;5073525;28;20489;-77
2023/03/05 11:17:38;;;;;;;33.73;17.10;;;;;;;6.15;98.82;99283.25;5073057;28;20347;-77
2023/03/05 11:20:22;;;;;;;35.90;16.60;;;;;;;6.08;97.21;99290.22;5073131;28;20296;-77
2023/03/05 11:23:10;;;;;;;33.07;16.10;;;;;;;6.07;96.70;99276.13;5073432;28;20256;-78